sensor_id;sensor_type;location;lat;lon;timestamp;P1;durP1;ratioP1;P2;durP2;ratioP2
5722;SDS011;2886;49.722;8.612;2022-10-31T00:01:15;16.13;;;6.50;;
5722;SDS011;2886;49.722;8.612;2022-10-31T00:03:41;9.20;;;5.70;;
5722;SDS011;2886;49.722;8.612;2022-10-31T00:06:07;16.73;;;4.93;;
5722;SDS011;2886;49.722;8.612;2022-10-31T00:08:32;15.13;;;6.50;;
5722;SDS011;2886;49.722;8.612;2022-10-31T00:10:58;11.20;;;5.77;;
5722;SDS011;2886;49.722;8.612;2022-10-31T00:13:24;15.80;;;6.40;;
5722;SDS011;2886;49.722;8.612;2022-10-31T00:15:50;6.50;;;4.60;;
5722;SDS011;2886;49.722;8.612;2022-10-31T00:18:15;14.17;;;5.77;;
5722;SDS011;2886;49.722;8.612;2022-10-31T00:20:41;10.30;;;5.23;;
5722;SDS011;2886;49.722;8.612;2022-10-31T00:23:06;10.10;;;5.67;;
5722;SDS011;2886;49.722;8.612;2022-10-31T00:25:34;9.77;;;5.63;;
5722;SDS011;2886;49.722;8.612;2022-10-31T00:28:01;14.17;;;6.50;;
5722;SDS011;2886;49.722;8.612;2022-10-31T00:30:28;18.07;;;6.03;;
5722;SDS011;2886;49.722;8.612;2022-10-31T00:32:54;14.53;;;6.00;;
5722;SDS011;2886;49.722;8.612;2022-10-31T00:35:19;10.43;;;5.80;;
5722;SDS011;2886;49.722;8.612;2022-10-31T00:37:45;13.47;;;5.30;;
5722;SDS011;2886;49.722;8.612;2022-10-31T00:40:11;10.70;;;5.70;;
5722;SDS011;2886;49.722;8.612;2022-10-31T00:42:36;16.70;;;6.47;;
5722;SDS011;2886;49.722;8.612;2022-10-31T00:45:02;16.20;;;6.30;;
5722;SDS011;2886;49.722;8.612;2022-10-31T00:47:28;13.00;;;6.10;;
5722;SDS011;2886;49.722;8.612;2022-10-31T00:49:53;13.03;;;6.17;;
5722;SDS011;2886;49.722;8.612;2022-10-31T00:52:19;10.87;;;6.27;;
5722;SDS011;2886;49.722;8.612;2022-10-31T00:54:44;23.00;;;7.17;;
5722;SDS011;2886;49.722;8.612;2022-10-31T00:57:10;13.73;;;6.63;;
5722;SDS011;2886;49.722;8.612;2022-10-31T00:59:36;13.00;;;6.10;;
5722;SDS011;2886;49.722;8.612;2022-10-31T01:02:01;9.60;;;5.70;;
5722;SDS011;2886;49.722;8.612;2022-10-31T01:04:27;11.07;;;5.47;;
5722;SDS011;2886;49.722;8.612;2022-10-31T01:06:52;20.33;;;6.97;;
5722;SDS011;2886;49.722;8.612;2022-10-31T01:09:18;18.40;;;6.20;;
5722;SDS011;2886;49.722;8.612;2022-10-31T01:11:44;17.50;;;5.70;;
5722;SDS011;2886;49.722;8.612;2022-10-31T01:14:10;7.20;;;4.77;;
5722;SDS011;2886;49.722;8.612;2022-10-31T01:16:35;13.60;;;6.10;;
5722;SDS011;2886;49.722;8.612;2022-10-31T01:19:01;13.50;;;6.10;;
5722;SDS011;2886;49.722;8.612;2022-10-31T01:21:27;17.40;;;5.43;;
5722;SDS011;2886;49.722;8.612;2022-10-31T01:23:54;11.20;;;5.33;;
5722;SDS011;2886;49.722;8.612;2022-10-31T01:26:21;15.43;;;5.27;;
5722;SDS011;2886;49.722;8.612;2022-10-31T01:28:55;13.77;;;6.30;;
5722;SDS011;2886;49.722;8.612;2022-10-31T01:31:24;8.83;;;4.63;;
5722;SDS011;2886;49.722;8.612;2022-10-31T01:33:51;10.47;;;5.60;;
5722;SDS011;2886;49.722;8.612;2022-10-31T01:36:19;10.90;;;5.17;;
5722;SDS011;2886;49.722;8.612;2022-10-31T01:38:50;12.93;;;6.40;;
5722;SDS011;2886;49.722;8.612;2022-10-31T01:41:20;11.07;;;5.60;;
5722;SDS011;2886;49.722;8.612;2022-10-31T01:43:51;16.30;;;6.33;;
5722;SDS011;2886;49.722;8.612;2022-10-31T01:46:24;9.50;;;4.93;;
5722;SDS011;2886;49.722;8.612;2022-10-31T01:48:53;11.33;;;5.73;;
5722;SDS011;2886;49.722;8.612;2022-10-31T01:51:20;10.80;;;5.50;;
5722;SDS011;2886;49.722;8.612;2022-10-31T01:53:48;14.40;;;5.50;;
5722;SDS011;2886;49.722;8.612;2022-10-31T01:56:19;9.23;;;5.30;;
5722;SDS011;2886;49.722;8.612;2022-10-31T01:58:45;7.70;;;4.67;;
5722;SDS011;2886;49.722;8.612;2022-10-31T02:01:11;8.57;;;4.83;;
5722;SDS011;2886;49.722;8.612;2022-10-31T02:03:39;11.37;;;5.80;;
5722;SDS011;2886;49.722;8.612;2022-10-31T02:06:06;9.50;;;5.80;;
5722;SDS011;2886;49.722;8.612;2022-10-31T02:08:37;8.87;;;4.87;;
5722;SDS011;2886;49.722;8.612;2022-10-31T02:11:05;10.60;;;5.13;;
5722;SDS011;2886;49.722;8.612;2022-10-31T02:13:32;15.73;;;5.60;;
5722;SDS011;2886;49.722;8.612;2022-10-31T02:15:59;6.77;;;4.53;;
5722;SDS011;2886;49.722;8.612;2022-10-31T02:18:26;13.50;;;4.37;;
5722;SDS011;2886;49.722;8.612;2022-10-31T02:26:41;6.93;;;4.53;;
5722;SDS011;2886;49.722;8.612;2022-10-31T02:34:44;9.33;;;5.33;;
5722;SDS011;2886;49.722;8.612;2022-10-31T02:40:10;11.07;;;5.30;;
5722;SDS011;2886;49.722;8.612;2022-10-31T02:42:50;7.20;;;4.23;;
5722;SDS011;2886;49.722;8.612;2022-10-31T02:48:20;10.07;;;5.20;;
5722;SDS011;2886;49.722;8.612;2022-10-31T02:50:58;8.73;;;4.40;;
5722;SDS011;2886;49.722;8.612;2022-10-31T02:53:26;8.90;;;4.93;;
5722;SDS011;2886;49.722;8.612;2022-10-31T02:55:58;9.93;;;4.60;;
5722;SDS011;2886;49.722;8.612;2022-10-31T02:58:27;12.80;;;5.80;;
5722;SDS011;2886;49.722;8.612;2022-10-31T03:04:05;12.43;;;4.30;;
5722;SDS011;2886;49.722;8.612;2022-10-31T03:09:38;11.00;;;5.03;;
5722;SDS011;2886;49.722;8.612;2022-10-31T03:15:24;11.63;;;5.30;;
5722;SDS011;2886;49.722;8.612;2022-10-31T03:18:07;11.73;;;5.60;;
5722;SDS011;2886;49.722;8.612;2022-10-31T03:23:14;11.47;;;5.10;;
5722;SDS011;2886;49.722;8.612;2022-10-31T03:25:40;9.83;;;5.37;;
5722;SDS011;2886;49.722;8.612;2022-10-31T03:28:08;10.70;;;4.90;;
5722;SDS011;2886;49.722;8.612;2022-10-31T03:30:37;13.87;;;4.80;;
5722;SDS011;2886;49.722;8.612;2022-10-31T03:33:08;13.10;;;5.60;;
5722;SDS011;2886;49.722;8.612;2022-10-31T03:35:39;7.70;;;5.03;;
5722;SDS011;2886;49.722;8.612;2022-10-31T03:38:07;13.37;;;5.23;;
5722;SDS011;2886;49.722;8.612;2022-10-31T03:40:34;15.80;;;5.63;;
5722;SDS011;2886;49.722;8.612;2022-10-31T03:43:05;8.33;;;4.57;;
5722;SDS011;2886;49.722;8.612;2022-10-31T03:45:36;8.87;;;5.20;;
5722;SDS011;2886;49.722;8.612;2022-10-31T03:48:08;9.17;;;4.87;;
5722;SDS011;2886;49.722;8.612;2022-10-31T03:53:41;7.73;;;4.50;;
5722;SDS011;2886;49.722;8.612;2022-10-31T03:56:29;12.83;;;4.53;;
5722;SDS011;2886;49.722;8.612;2022-10-31T03:59:04;11.20;;;5.50;;
5722;SDS011;2886;49.722;8.612;2022-10-31T04:01:37;8.50;;;4.47;;
5722;SDS011;2886;49.722;8.612;2022-10-31T04:04:06;8.90;;;4.87;;
5722;SDS011;2886;49.722;8.612;2022-10-31T04:06:32;19.53;;;5.27;;
5722;SDS011;2886;49.722;8.612;2022-10-31T04:09:01;15.37;;;4.57;;
5722;SDS011;2886;49.722;8.612;2022-10-31T04:11:34;8.53;;;5.10;;
5722;SDS011;2886;49.722;8.612;2022-10-31T04:14:03;17.67;;;5.17;;
5722;SDS011;2886;49.722;8.612;2022-10-31T04:16:30;12.27;;;4.97;;
5722;SDS011;2886;49.722;8.612;2022-10-31T04:18:56;9.33;;;5.00;;
5722;SDS011;2886;49.722;8.612;2022-10-31T04:21:28;6.97;;;4.63;;
5722;SDS011;2886;49.722;8.612;2022-10-31T04:23:55;10.80;;;5.23;;
5722;SDS011;2886;49.722;8.612;2022-10-31T04:26:21;13.83;;;4.93;;
5722;SDS011;2886;49.722;8.612;2022-10-31T04:28:47;9.17;;;5.67;;
5722;SDS011;2886;49.722;8.612;2022-10-31T04:31:15;10.57;;;5.10;;
5722;SDS011;2886;49.722;8.612;2022-10-31T04:33:40;16.70;;;5.20;;
5722;SDS011;2886;49.722;8.612;2022-10-31T04:36:06;8.17;;;5.57;;
5722;SDS011;2886;49.722;8.612;2022-10-31T04:38:32;7.87;;;5.43;;
5722;SDS011;2886;49.722;8.612;2022-10-31T04:40:57;13.83;;;5.10;;
5722;SDS011;2886;49.722;8.612;2022-10-31T04:43:23;10.27;;;5.20;;
5722;SDS011;2886;49.722;8.612;2022-10-31T04:45:49;13.83;;;5.47;;
5722;SDS011;2886;49.722;8.612;2022-10-31T04:48:15;15.53;;;6.30;;
5722;SDS011;2886;49.722;8.612;2022-10-31T04:50:42;14.43;;;6.07;;
5722;SDS011;2886;49.722;8.612;2022-10-31T04:53:08;12.30;;;5.30;;
5722;SDS011;2886;49.722;8.612;2022-10-31T04:55:35;12.57;;;5.60;;
5722;SDS011;2886;49.722;8.612;2022-10-31T04:58:01;7.97;;;5.20;;
5722;SDS011;2886;49.722;8.612;2022-10-31T05:00:27;6.90;;;4.80;;
5722;SDS011;2886;49.722;8.612;2022-10-31T05:02:53;10.40;;;5.53;;
5722;SDS011;2886;49.722;8.612;2022-10-31T05:05:22;14.07;;;6.30;;
5722;SDS011;2886;49.722;8.612;2022-10-31T05:07:49;11.30;;;5.57;;
5722;SDS011;2886;49.722;8.612;2022-10-31T05:10:20;14.83;;;6.10;;
5722;SDS011;2886;49.722;8.612;2022-10-31T05:12:56;6.90;;;4.70;;
5722;SDS011;2886;49.722;8.612;2022-10-31T05:15:23;8.60;;;5.20;;
5722;SDS011;2886;49.722;8.612;2022-10-31T05:17:50;8.70;;;4.50;;
5722;SDS011;2886;49.722;8.612;2022-10-31T05:20:17;7.13;;;4.90;;
5722;SDS011;2886;49.722;8.612;2022-10-31T05:22:51;13.20;;;5.30;;
5722;SDS011;2886;49.722;8.612;2022-10-31T05:25:19;9.83;;;5.60;;
5722;SDS011;2886;49.722;8.612;2022-10-31T05:27:46;9.27;;;4.77;;
5722;SDS011;2886;49.722;8.612;2022-10-31T05:30:13;16.20;;;5.10;;
5722;SDS011;2886;49.722;8.612;2022-10-31T05:32:41;12.90;;;5.90;;
5722;SDS011;2886;49.722;8.612;2022-10-31T05:35:09;10.07;;;4.83;;
5722;SDS011;2886;49.722;8.612;2022-10-31T05:37:36;10.33;;;5.23;;
5722;SDS011;2886;49.722;8.612;2022-10-31T05:40:03;9.53;;;5.43;;
5722;SDS011;2886;49.722;8.612;2022-10-31T05:42:29;11.53;;;5.73;;
5722;SDS011;2886;49.722;8.612;2022-10-31T05:44:55;6.90;;;4.33;;
5722;SDS011;2886;49.722;8.612;2022-10-31T05:47:21;15.67;;;5.70;;
5722;SDS011;2886;49.722;8.612;2022-10-31T05:49:46;10.73;;;5.27;;
5722;SDS011;2886;49.722;8.612;2022-10-31T05:52:12;9.70;;;4.97;;
5722;SDS011;2886;49.722;8.612;2022-10-31T05:54:38;8.73;;;4.90;;
5722;SDS011;2886;49.722;8.612;2022-10-31T05:57:03;10.10;;;5.30;;
5722;SDS011;2886;49.722;8.612;2022-10-31T05:59:29;7.63;;;4.77;;
5722;SDS011;2886;49.722;8.612;2022-10-31T06:01:55;6.17;;;4.77;;
5722;SDS011;2886;49.722;8.612;2022-10-31T06:04:20;12.13;;;6.17;;
5722;SDS011;2886;49.722;8.612;2022-10-31T06:06:46;7.40;;;5.00;;
5722;SDS011;2886;49.722;8.612;2022-10-31T06:09:11;9.10;;;5.33;;
5722;SDS011;2886;49.722;8.612;2022-10-31T06:11:37;9.70;;;5.67;;
5722;SDS011;2886;49.722;8.612;2022-10-31T06:14:03;13.83;;;5.70;;
5722;SDS011;2886;49.722;8.612;2022-10-31T06:16:29;19.43;;;6.23;;
5722;SDS011;2886;49.722;8.612;2022-10-31T06:18:55;12.30;;;5.97;;
5722;SDS011;2886;49.722;8.612;2022-10-31T06:21:20;13.67;;;5.93;;
5722;SDS011;2886;49.722;8.612;2022-10-31T06:23:46;11.10;;;6.37;;
5722;SDS011;2886;49.722;8.612;2022-10-31T06:26:12;11.00;;;6.20;;
5722;SDS011;2886;49.722;8.612;2022-10-31T06:28:37;21.13;;;7.43;;
5722;SDS011;2886;49.722;8.612;2022-10-31T06:31:03;18.20;;;7.33;;
5722;SDS011;2886;49.722;8.612;2022-10-31T06:33:28;16.87;;;7.20;;
5722;SDS011;2886;49.722;8.612;2022-10-31T06:35:54;10.93;;;6.50;;
5722;SDS011;2886;49.722;8.612;2022-10-31T06:38:20;14.77;;;6.70;;
5722;SDS011;2886;49.722;8.612;2022-10-31T06:40:45;20.43;;;6.67;;
5722;SDS011;2886;49.722;8.612;2022-10-31T06:43:11;17.00;;;7.63;;
5722;SDS011;2886;49.722;8.612;2022-10-31T06:45:37;19.63;;;7.70;;
5722;SDS011;2886;49.722;8.612;2022-10-31T06:48:03;26.63;;;7.00;;
5722;SDS011;2886;49.722;8.612;2022-10-31T06:50:28;16.20;;;6.90;;
5722;SDS011;2886;49.722;8.612;2022-10-31T06:52:55;16.80;;;7.07;;
5722;SDS011;2886;49.722;8.612;2022-10-31T06:55:22;18.23;;;7.10;;
5722;SDS011;2886;49.722;8.612;2022-10-31T06:57:59;16.60;;;8.03;;
5722;SDS011;2886;49.722;8.612;2022-10-31T07:00:26;21.27;;;8.27;;
5722;SDS011;2886;49.722;8.612;2022-10-31T07:02:56;18.07;;;7.10;;
5722;SDS011;2886;49.722;8.612;2022-10-31T07:05:30;17.20;;;7.60;;
5722;SDS011;2886;49.722;8.612;2022-10-31T07:07:57;26.07;;;8.90;;
5722;SDS011;2886;49.722;8.612;2022-10-31T07:10:25;21.30;;;7.33;;
5722;SDS011;2886;49.722;8.612;2022-10-31T07:12:55;15.73;;;7.20;;
5722;SDS011;2886;49.722;8.612;2022-10-31T07:15:22;15.37;;;7.27;;
5722;SDS011;2886;49.722;8.612;2022-10-31T07:17:49;19.40;;;7.20;;
5722;SDS011;2886;49.722;8.612;2022-10-31T07:20:15;14.73;;;6.37;;
5722;SDS011;2886;49.722;8.612;2022-10-31T07:22:41;19.53;;;7.90;;
5722;SDS011;2886;49.722;8.612;2022-10-31T07:25:07;20.40;;;7.13;;
5722;SDS011;2886;49.722;8.612;2022-10-31T07:27:39;13.80;;;6.50;;
5722;SDS011;2886;49.722;8.612;2022-10-31T07:30:06;17.30;;;7.07;;
5722;SDS011;2886;49.722;8.612;2022-10-31T07:32:43;13.50;;;8.20;;
5722;SDS011;2886;49.722;8.612;2022-10-31T07:35:13;19.77;;;6.27;;
5722;SDS011;2886;49.722;8.612;2022-10-31T07:37:42;12.33;;;6.60;;
5722;SDS011;2886;49.722;8.612;2022-10-31T07:40:08;12.03;;;7.10;;
5722;SDS011;2886;49.722;8.612;2022-10-31T07:42:38;10.20;;;5.83;;
5722;SDS011;2886;49.722;8.612;2022-10-31T07:45:06;17.03;;;6.60;;
5722;SDS011;2886;49.722;8.612;2022-10-31T07:47:40;15.80;;;6.67;;
5722;SDS011;2886;49.722;8.612;2022-10-31T07:50:07;10.73;;;6.30;;
5722;SDS011;2886;49.722;8.612;2022-10-31T07:52:34;12.27;;;5.63;;
5722;SDS011;2886;49.722;8.612;2022-10-31T07:55:00;10.97;;;6.30;;
5722;SDS011;2886;49.722;8.612;2022-10-31T07:57:26;11.73;;;6.40;;
5722;SDS011;2886;49.722;8.612;2022-10-31T07:59:52;14.50;;;6.57;;
5722;SDS011;2886;49.722;8.612;2022-10-31T08:02:17;13.50;;;7.20;;
5722;SDS011;2886;49.722;8.612;2022-10-31T08:04:43;15.10;;;6.30;;
5722;SDS011;2886;49.722;8.612;2022-10-31T08:07:08;11.33;;;6.60;;
5722;SDS011;2886;49.722;8.612;2022-10-31T08:09:34;11.67;;;6.70;;
5722;SDS011;2886;49.722;8.612;2022-10-31T08:12:00;14.27;;;6.57;;
5722;SDS011;2886;49.722;8.612;2022-10-31T08:14:26;13.10;;;5.83;;
5722;SDS011;2886;49.722;8.612;2022-10-31T08:16:52;18.03;;;6.90;;
5722;SDS011;2886;49.722;8.612;2022-10-31T08:19:18;16.23;;;6.93;;
5722;SDS011;2886;49.722;8.612;2022-10-31T08:21:44;13.77;;;7.30;;
5722;SDS011;2886;49.722;8.612;2022-10-31T08:24:10;12.53;;;7.20;;
5722;SDS011;2886;49.722;8.612;2022-10-31T08:26:35;9.80;;;6.03;;
5722;SDS011;2886;49.722;8.612;2022-10-31T08:29:01;12.10;;;6.60;;
5722;SDS011;2886;49.722;8.612;2022-10-31T08:31:27;11.23;;;5.57;;
5722;SDS011;2886;49.722;8.612;2022-10-31T08:33:53;11.83;;;7.03;;
5722;SDS011;2886;49.722;8.612;2022-10-31T08:36:20;13.70;;;6.80;;
5722;SDS011;2886;49.722;8.612;2022-10-31T08:38:46;8.03;;;6.13;;
5722;SDS011;2886;49.722;8.612;2022-10-31T08:41:12;10.07;;;6.20;;
5722;SDS011;2886;49.722;8.612;2022-10-31T08:43:38;8.40;;;5.83;;
5722;SDS011;2886;49.722;8.612;2022-10-31T08:46:03;7.50;;;5.73;;
5722;SDS011;2886;49.722;8.612;2022-10-31T08:48:29;16.67;;;6.43;;
5722;SDS011;2886;49.722;8.612;2022-10-31T08:50:56;9.30;;;5.80;;
5722;SDS011;2886;49.722;8.612;2022-10-31T08:53:23;14.03;;;6.43;;
5722;SDS011;2886;49.722;8.612;2022-10-31T08:55:49;12.77;;;5.37;;
5722;SDS011;2886;49.722;8.612;2022-10-31T08:58:15;10.70;;;6.50;;
5722;SDS011;2886;49.722;8.612;2022-10-31T09:00:42;15.97;;;5.60;;
5722;SDS011;2886;49.722;8.612;2022-10-31T09:03:10;13.37;;;5.70;;
5722;SDS011;2886;49.722;8.612;2022-10-31T09:05:37;10.20;;;6.70;;
5722;SDS011;2886;49.722;8.612;2022-10-31T09:08:04;9.33;;;6.80;;
5722;SDS011;2886;49.722;8.612;2022-10-31T09:10:31;9.10;;;6.23;;
5722;SDS011;2886;49.722;8.612;2022-10-31T09:13:02;9.20;;;6.47;;
5722;SDS011;2886;49.722;8.612;2022-10-31T09:15:36;8.80;;;5.73;;
5722;SDS011;2886;49.722;8.612;2022-10-31T09:18:03;7.70;;;5.80;;
5722;SDS011;2886;49.722;8.612;2022-10-31T09:20:30;12.87;;;5.87;;
5722;SDS011;2886;49.722;8.612;2022-10-31T09:22:57;9.93;;;6.60;;
5722;SDS011;2886;49.722;8.612;2022-10-31T09:25:24;15.23;;;5.80;;
5722;SDS011;2886;49.722;8.612;2022-10-31T09:27:50;9.87;;;6.10;;
5722;SDS011;2886;49.722;8.612;2022-10-31T09:30:20;11.97;;;5.30;;
5722;SDS011;2886;49.722;8.612;2022-10-31T09:32:45;10.50;;;6.30;;
5722;SDS011;2886;49.722;8.612;2022-10-31T09:35:11;9.27;;;5.47;;
5722;SDS011;2886;49.722;8.612;2022-10-31T09:37:36;12.00;;;6.23;;
5722;SDS011;2886;49.722;8.612;2022-10-31T09:40:02;10.17;;;5.63;;
5722;SDS011;2886;49.722;8.612;2022-10-31T09:51:35;10.83;;;5.53;;
5722;SDS011;2886;49.722;8.612;2022-10-31T09:54:08;11.23;;;6.00;;
5722;SDS011;2886;49.722;8.612;2022-10-31T09:56:35;9.67;;;6.13;;
5722;SDS011;2886;49.722;8.612;2022-10-31T09:59:03;9.03;;;5.80;;
5722;SDS011;2886;49.722;8.612;2022-10-31T10:06:41;17.63;;;7.00;;
5722;SDS011;2886;49.722;8.612;2022-10-31T10:09:10;10.37;;;5.70;;
5722;SDS011;2886;49.722;8.612;2022-10-31T10:17:36;9.30;;;5.90;;
5722;SDS011;2886;49.722;8.612;2022-10-31T10:23:22;13.60;;;7.37;;
5722;SDS011;2886;49.722;8.612;2022-10-31T10:25:40;15.37;;;6.97;;
5722;SDS011;2886;49.722;8.612;2022-10-31T10:28:18;12.33;;;6.70;;
5722;SDS011;2886;49.722;8.612;2022-10-31T10:36:30;13.43;;;7.60;;
5722;SDS011;2886;49.722;8.612;2022-10-31T10:39:04;12.87;;;6.70;;
5722;SDS011;2886;49.722;8.612;2022-10-31T10:41:53;21.93;;;7.70;;
5722;SDS011;2886;49.722;8.612;2022-10-31T10:44:43;10.83;;;7.00;;
5722;SDS011;2886;49.722;8.612;2022-10-31T10:47:32;14.00;;;7.80;;
5722;SDS011;2886;49.722;8.612;2022-10-31T10:50:19;16.47;;;7.40;;
5722;SDS011;2886;49.722;8.612;2022-10-31T10:58:25;9.83;;;6.43;;
5722;SDS011;2886;49.722;8.612;2022-10-31T11:00:51;9.67;;;6.60;;
5722;SDS011;2886;49.722;8.612;2022-10-31T11:03:20;10.83;;;7.30;;
5722;SDS011;2886;49.722;8.612;2022-10-31T11:05:55;17.73;;;7.50;;
5722;SDS011;2886;49.722;8.612;2022-10-31T11:08:27;18.77;;;8.23;;
5722;SDS011;2886;49.722;8.612;2022-10-31T11:11:01;13.67;;;8.17;;
5722;SDS011;2886;49.722;8.612;2022-10-31T11:13:37;14.33;;;6.73;;
5722;SDS011;2886;49.722;8.612;2022-10-31T11:16:13;17.23;;;8.30;;
5722;SDS011;2886;49.722;8.612;2022-10-31T11:21:38;12.57;;;7.90;;
5722;SDS011;2886;49.722;8.612;2022-10-31T11:24:11;14.03;;;7.60;;
5722;SDS011;2886;49.722;8.612;2022-10-31T11:26:43;22.83;;;7.10;;
5722;SDS011;2886;49.722;8.612;2022-10-31T11:31:47;15.30;;;7.80;;
5722;SDS011;2886;49.722;8.612;2022-10-31T11:34:59;17.37;;;7.73;;
5722;SDS011;2886;49.722;8.612;2022-10-31T11:37:18;15.10;;;8.60;;
5722;SDS011;2886;49.722;8.612;2022-10-31T11:39:55;19.40;;;7.90;;
5722;SDS011;2886;49.722;8.612;2022-10-31T11:42:25;20.53;;;8.07;;
5722;SDS011;2886;49.722;8.612;2022-10-31T11:44:53;20.23;;;7.27;;
5722;SDS011;2886;49.722;8.612;2022-10-31T11:47:29;15.63;;;8.47;;
5722;SDS011;2886;49.722;8.612;2022-10-31T11:49:57;20.13;;;9.07;;
5722;SDS011;2886;49.722;8.612;2022-10-31T11:52:33;17.53;;;8.00;;
5722;SDS011;2886;49.722;8.612;2022-10-31T11:55:13;11.70;;;6.53;;
5722;SDS011;2886;49.722;8.612;2022-10-31T11:57:43;10.77;;;6.60;;
5722;SDS011;2886;49.722;8.612;2022-10-31T12:00:23;13.63;;;8.20;;
5722;SDS011;2886;49.722;8.612;2022-10-31T12:02:51;23.53;;;7.47;;
5722;SDS011;2886;49.722;8.612;2022-10-31T12:05:49;18.30;;;7.77;;
5722;SDS011;2886;49.722;8.612;2022-10-31T12:08:38;25.23;;;6.80;;
5722;SDS011;2886;49.722;8.612;2022-10-31T12:14:05;16.07;;;7.97;;
5722;SDS011;2886;49.722;8.612;2022-10-31T12:16:46;15.83;;;7.80;;
5722;SDS011;2886;49.722;8.612;2022-10-31T12:32:53;15.50;;;7.50;;
5722;SDS011;2886;49.722;8.612;2022-10-31T12:41:01;27.70;;;9.10;;
5722;SDS011;2886;49.722;8.612;2022-10-31T12:43:53;12.40;;;6.10;;
5722;SDS011;2886;49.722;8.612;2022-10-31T13:05:14;18.67;;;7.70;;
5722;SDS011;2886;49.722;8.612;2022-10-31T13:08:00;16.27;;;7.90;;
5722;SDS011;2886;49.722;8.612;2022-10-31T13:10:45;18.40;;;8.47;;
5722;SDS011;2886;49.722;8.612;2022-10-31T13:13:17;14.20;;;7.27;;
5722;SDS011;2886;49.722;8.612;2022-10-31T13:15:53;19.10;;;8.03;;
5722;SDS011;2886;49.722;8.612;2022-10-31T13:18:34;16.53;;;7.40;;
5722;SDS011;2886;49.722;8.612;2022-10-31T13:21:10;9.73;;;6.57;;
5722;SDS011;2886;49.722;8.612;2022-10-31T13:23:41;11.30;;;6.37;;
5722;SDS011;2886;49.722;8.612;2022-10-31T13:26:10;12.07;;;6.30;;
5722;SDS011;2886;49.722;8.612;2022-10-31T13:28:52;15.60;;;7.67;;
5722;SDS011;2886;49.722;8.612;2022-10-31T13:31:24;12.63;;;6.53;;
5722;SDS011;2886;49.722;8.612;2022-10-31T13:33:55;11.90;;;6.67;;
5722;SDS011;2886;49.722;8.612;2022-10-31T13:41:41;15.13;;;7.00;;
5722;SDS011;2886;49.722;8.612;2022-10-31T13:44:15;11.93;;;6.50;;
5722;SDS011;2886;49.722;8.612;2022-10-31T13:46:49;15.80;;;6.73;;
5722;SDS011;2886;49.722;8.612;2022-10-31T13:54:34;18.63;;;7.30;;
5722;SDS011;2886;49.722;8.612;2022-10-31T14:00:02;15.97;;;6.97;;
5722;SDS011;2886;49.722;8.612;2022-10-31T14:02:32;12.63;;;7.23;;
5722;SDS011;2886;49.722;8.612;2022-10-31T14:05:01;13.33;;;7.70;;
5722;SDS011;2886;49.722;8.612;2022-10-31T14:07:43;15.40;;;7.37;;
5722;SDS011;2886;49.722;8.612;2022-10-31T14:13:03;14.63;;;6.90;;
5722;SDS011;2886;49.722;8.612;2022-10-31T14:15:37;14.53;;;8.30;;
5722;SDS011;2886;49.722;8.612;2022-10-31T14:18:07;17.80;;;7.47;;
5722;SDS011;2886;49.722;8.612;2022-10-31T14:20:54;20.97;;;6.70;;
5722;SDS011;2886;49.722;8.612;2022-10-31T14:23:34;12.97;;;6.90;;
5722;SDS011;2886;49.722;8.612;2022-10-31T14:28:57;11.63;;;6.87;;
5722;SDS011;2886;49.722;8.612;2022-10-31T14:31:32;15.70;;;7.03;;
5722;SDS011;2886;49.722;8.612;2022-10-31T14:44:48;13.43;;;7.13;;
5722;SDS011;2886;49.722;8.612;2022-10-31T14:47:22;15.40;;;7.10;;
5722;SDS011;2886;49.722;8.612;2022-10-31T14:50:02;12.13;;;6.70;;
5722;SDS011;2886;49.722;8.612;2022-10-31T14:52:30;13.53;;;6.97;;
5722;SDS011;2886;49.722;8.612;2022-10-31T14:54:57;15.80;;;6.10;;
5722;SDS011;2886;49.722;8.612;2022-10-31T14:57:26;16.07;;;6.63;;
5722;SDS011;2886;49.722;8.612;2022-10-31T14:59:56;21.30;;;6.87;;
5722;SDS011;2886;49.722;8.612;2022-10-31T15:02:26;10.97;;;6.20;;
5722;SDS011;2886;49.722;8.612;2022-10-31T15:05:05;14.73;;;6.53;;
5722;SDS011;2886;49.722;8.612;2022-10-31T15:07:32;13.00;;;7.50;;
5722;SDS011;2886;49.722;8.612;2022-10-31T15:10:00;13.00;;;6.70;;
5722;SDS011;2886;49.722;8.612;2022-10-31T15:12:32;11.17;;;6.07;;
5722;SDS011;2886;49.722;8.612;2022-10-31T15:18:00;12.90;;;6.03;;
5722;SDS011;2886;49.722;8.612;2022-10-31T15:20:30;10.30;;;5.13;;
5722;SDS011;2886;49.722;8.612;2022-10-31T15:23:02;11.23;;;5.40;;
5722;SDS011;2886;49.722;8.612;2022-10-31T15:25:28;11.63;;;6.50;;
5722;SDS011;2886;49.722;8.612;2022-10-31T15:27:58;9.00;;;6.47;;
5722;SDS011;2886;49.722;8.612;2022-10-31T15:30:27;12.40;;;6.40;;
5722;SDS011;2886;49.722;8.612;2022-10-31T15:32:54;10.33;;;6.10;;
5722;SDS011;2886;49.722;8.612;2022-10-31T15:35:29;15.60;;;6.40;;
5722;SDS011;2886;49.722;8.612;2022-10-31T15:37:58;9.97;;;6.30;;
5722;SDS011;2886;49.722;8.612;2022-10-31T15:40:26;19.07;;;6.97;;
5722;SDS011;2886;49.722;8.612;2022-10-31T15:42:54;14.17;;;6.13;;
5722;SDS011;2886;49.722;8.612;2022-10-31T15:45:23;11.90;;;6.07;;
5722;SDS011;2886;49.722;8.612;2022-10-31T15:47:55;18.13;;;7.03;;
5722;SDS011;2886;49.722;8.612;2022-10-31T15:52:55;14.33;;;6.10;;
5722;SDS011;2886;49.722;8.612;2022-10-31T15:55:23;14.83;;;6.27;;
5722;SDS011;2886;49.722;8.612;2022-10-31T15:57:54;12.27;;;6.53;;
5722;SDS011;2886;49.722;8.612;2022-10-31T16:00:33;11.07;;;6.07;;
5722;SDS011;2886;49.722;8.612;2022-10-31T16:03:03;18.30;;;6.90;;
5722;SDS011;2886;49.722;8.612;2022-10-31T16:05:43;15.30;;;6.70;;
5722;SDS011;2886;49.722;8.612;2022-10-31T16:10:58;12.70;;;6.73;;
5722;SDS011;2886;49.722;8.612;2022-10-31T16:13:31;12.80;;;7.27;;
5722;SDS011;2886;49.722;8.612;2022-10-31T16:16:02;12.53;;;6.77;;
5722;SDS011;2886;49.722;8.612;2022-10-31T16:18:36;23.07;;;7.50;;
5722;SDS011;2886;49.722;8.612;2022-10-31T16:21:04;12.33;;;6.00;;
5722;SDS011;2886;49.722;8.612;2022-10-31T16:23:30;13.00;;;6.00;;
5722;SDS011;2886;49.722;8.612;2022-10-31T16:25:56;13.10;;;5.90;;
5722;SDS011;2886;49.722;8.612;2022-10-31T16:28:26;17.67;;;6.37;;
5722;SDS011;2886;49.722;8.612;2022-10-31T16:30:56;13.83;;;6.03;;
5722;SDS011;2886;49.722;8.612;2022-10-31T16:33:27;14.53;;;7.07;;
5722;SDS011;2886;49.722;8.612;2022-10-31T16:35:56;13.23;;;7.10;;
5722;SDS011;2886;49.722;8.612;2022-10-31T16:38:23;15.60;;;7.37;;
5722;SDS011;2886;49.722;8.612;2022-10-31T16:40:49;14.30;;;6.83;;
5722;SDS011;2886;49.722;8.612;2022-10-31T16:43:16;10.50;;;6.47;;
5722;SDS011;2886;49.722;8.612;2022-10-31T16:45:44;11.30;;;7.20;;
5722;SDS011;2886;49.722;8.612;2022-10-31T16:48:15;14.33;;;7.90;;
5722;SDS011;2886;49.722;8.612;2022-10-31T16:50:46;16.83;;;7.03;;
5722;SDS011;2886;49.722;8.612;2022-10-31T16:53:13;27.00;;;15.90;;
5722;SDS011;2886;49.722;8.612;2022-10-31T16:56:02;16.67;;;8.67;;
5722;SDS011;2886;49.722;8.612;2022-10-31T16:58:28;13.10;;;7.90;;
5722;SDS011;2886;49.722;8.612;2022-10-31T17:00:56;14.00;;;7.50;;
5722;SDS011;2886;49.722;8.612;2022-10-31T17:03:23;16.77;;;6.83;;
5722;SDS011;2886;49.722;8.612;2022-10-31T17:05:50;17.33;;;7.70;;
5722;SDS011;2886;49.722;8.612;2022-10-31T17:08:15;16.63;;;9.33;;
5722;SDS011;2886;49.722;8.612;2022-10-31T17:10:41;19.90;;;6.50;;
5722;SDS011;2886;49.722;8.612;2022-10-31T17:13:13;13.70;;;7.07;;
5722;SDS011;2886;49.722;8.612;2022-10-31T17:15:46;11.50;;;6.80;;
5722;SDS011;2886;49.722;8.612;2022-10-31T17:18:15;14.10;;;7.20;;
5722;SDS011;2886;49.722;8.612;2022-10-31T17:20:44;15.37;;;8.30;;
5722;SDS011;2886;49.722;8.612;2022-10-31T17:23:11;15.20;;;7.43;;
5722;SDS011;2886;49.722;8.612;2022-10-31T17:25:37;17.73;;;9.47;;
5722;SDS011;2886;49.722;8.612;2022-10-31T17:28:03;29.33;;;14.90;;
5722;SDS011;2886;49.722;8.612;2022-10-31T17:30:30;16.10;;;9.70;;
5722;SDS011;2886;49.722;8.612;2022-10-31T17:32:56;24.10;;;9.40;;
5722;SDS011;2886;49.722;8.612;2022-10-31T17:35:22;19.03;;;8.23;;
5722;SDS011;2886;49.722;8.612;2022-10-31T17:37:48;16.80;;;7.67;;
5722;SDS011;2886;49.722;8.612;2022-10-31T17:40:15;26.83;;;7.93;;
5722;SDS011;2886;49.722;8.612;2022-10-31T17:42:47;20.07;;;7.77;;
5722;SDS011;2886;49.722;8.612;2022-10-31T17:45:17;18.30;;;8.70;;
5722;SDS011;2886;49.722;8.612;2022-10-31T17:47:45;14.73;;;7.40;;
5722;SDS011;2886;49.722;8.612;2022-10-31T17:50:12;24.83;;;8.47;;